createdAt,value
2023-02-17T09:44:17.615Z,6.87
2023-02-17T09:46:59.515Z,6.83
2023-02-17T09:49:10.356Z,6.77
2023-02-17T09:51:36.709Z,6.47
2023-02-17T09:54:03.100Z,7.00
2023-02-17T09:56:29.462Z,7.20
2023-02-17T09:58:55.926Z,5.73
2023-02-17T10:01:22.282Z,6.50
2023-02-17T10:03:48.608Z,6.50
2023-02-17T10:06:14.951Z,5.50
2023-02-17T10:08:41.372Z,6.47
2023-02-17T10:11:07.715Z,6.87
2023-02-17T10:13:34.147Z,7.20
2023-02-17T10:16:00.457Z,7.00
2023-02-17T10:18:26.876Z,6.57
2023-02-17T10:20:53.227Z,6.73
2023-02-17T10:23:19.565Z,6.20
2023-02-17T10:25:45.976Z,6.80
2023-02-17T10:28:12.319Z,6.00
2023-02-17T10:30:38.785Z,5.70
2023-02-17T10:33:05.074Z,5.83
2023-02-17T10:35:31.463Z,5.47
2023-02-17T10:37:57.835Z,5.57
2023-02-17T10:40:24.185Z,5.90
2023-02-17T10:42:50.731Z,6.37
2023-02-17T10:45:16.969Z,5.60
2023-02-17T10:47:43.426Z,6.23
2023-02-17T10:50:09.801Z,5.00
2023-02-17T10:52:36.184Z,5.57
2023-02-17T10:55:06.593Z,5.13
2023-02-17T10:57:28.946Z,4.73
2023-02-17T10:59:55.276Z,4.90
2023-02-17T11:02:21.675Z,4.30
2023-02-17T11:04:48.025Z,4.83
2023-02-17T11:07:14.412Z,4.97
2023-02-17T11:09:40.759Z,4.90
2023-02-17T11:12:07.160Z,4.93
2023-02-17T11:14:33.505Z,4.53
2023-02-17T11:16:59.947Z,4.00
2023-02-17T11:19:28.727Z,4.30
2023-02-17T11:21:55.090Z,4.30
2023-02-17T11:24:21.418Z,4.40
2023-02-17T11:26:47.794Z,4.03
2023-02-17T11:29:14.142Z,3.73
2023-02-17T11:31:40.622Z,3.90
2023-02-17T11:34:06.889Z,4.07
2023-02-17T11:36:33.360Z,4.13
2023-02-17T11:38:59.719Z,4.03
2023-02-17T11:41:26.096Z,4.20
2023-02-17T11:43:52.438Z,3.80
2023-02-17T11:46:18.861Z,3.80
2023-02-17T11:48:45.161Z,4.00
2023-02-17T11:51:11.536Z,3.77
2023-02-17T11:53:37.902Z,3.27
2023-02-17T11:56:04.668Z,3.63
2023-02-17T11:58:30.636Z,3.57
2023-02-17T12:00:58.340Z,3.30
2023-02-17T12:03:23.398Z,3.50
2023-02-17T12:05:49.755Z,3.20
2023-02-17T12:08:16.101Z,3.47
2023-02-17T12:10:42.483Z,3.60
2023-02-17T12:13:08.825Z,3.50
2023-02-17T12:15:35.296Z,3.87
2023-02-17T12:18:01.565Z,3.40
2023-02-17T12:20:27.961Z,3.33
2023-02-17T12:22:54.304Z,3.77
2023-02-17T12:25:20.702Z,3.37
2023-02-17T12:27:47.062Z,4.17
2023-02-17T12:30:13.570Z,2.90
2023-02-17T12:32:39.856Z,3.20
2023-02-17T12:35:06.235Z,3.10
2023-02-17T12:37:32.590Z,3.53
2023-02-17T12:39:58.973Z,3.00
2023-02-17T12:42:25.316Z,3.40
2023-02-17T12:44:51.730Z,2.73
2023-02-17T12:47:18.078Z,3.00
2023-02-17T12:49:44.475Z,3.17
2023-02-17T12:52:10.820Z,2.80
2023-02-17T12:54:37.236Z,3.43
2023-02-17T12:57:03.590Z,2.77
2023-02-17T12:59:29.981Z,3.13
2023-02-17T13:01:56.319Z,3.00
2023-02-17T13:04:22.712Z,2.80
2023-02-17T13:06:49.069Z,2.80
2023-02-17T13:09:15.450Z,2.80
2023-02-17T13:11:41.852Z,2.90
2023-02-17T13:14:08.291Z,2.87
2023-02-17T13:16:34.648Z,2.90
2023-02-17T13:19:01.036Z,2.70
2023-02-17T13:21:27.732Z,2.60
2023-02-17T13:23:54.111Z,2.80
2023-02-17T13:26:20.470Z,2.80
2023-02-17T13:28:46.874Z,3.20
2023-02-17T13:31:13.330Z,2.83
2023-02-17T13:33:39.620Z,2.63
2023-02-17T13:36:06.266Z,2.70
2023-02-17T13:38:32.454Z,2.90
2023-02-17T13:40:58.749Z,2.87
2023-02-17T13:43:27.267Z,2.83
2023-02-17T13:45:53.668Z,2.40
2023-02-17T13:48:20.057Z,2.97
2023-02-17T13:50:46.415Z,2.73
2023-02-17T13:53:12.853Z,2.80
2023-02-17T13:55:39.184Z,2.77
2023-02-17T13:58:05.590Z,2.30
2023-02-17T14:00:31.946Z,2.43
2023-02-17T14:02:58.349Z,2.50
2023-02-17T14:05:24.719Z,2.60
2023-02-17T14:07:51.112Z,2.47
2023-02-17T14:10:17.469Z,2.10
2023-02-17T14:12:43.903Z,2.67
2023-02-17T14:15:10.258Z,3.00
2023-02-17T14:17:36.665Z,2.10
2023-02-17T14:20:03.043Z,2.53
2023-02-17T14:22:29.423Z,2.10
2023-02-17T14:24:55.768Z,2.40
2023-02-17T14:27:22.165Z,2.23
2023-02-17T14:29:48.528Z,2.60
2023-02-17T14:32:14.979Z,2.20
2023-02-17T14:34:41.255Z,2.17
2023-02-17T14:37:07.698Z,2.57
2023-02-17T14:39:34.047Z,2.20
2023-02-17T14:42:00.476Z,2.40
2023-02-17T14:44:26.820Z,2.33
2023-02-17T14:46:53.248Z,2.87
2023-02-17T14:49:20.540Z,2.30
2023-02-17T14:51:45.987Z,2.40
2023-02-17T14:54:12.327Z,2.27
2023-02-17T14:56:38.730Z,2.60
2023-02-17T14:59:05.068Z,2.40
2023-02-17T15:01:31.516Z,2.43
2023-02-17T15:03:57.842Z,2.47
2023-02-17T15:06:26.060Z,2.47
2023-02-17T15:08:50.576Z,2.40
2023-02-17T15:11:16.974Z,2.20
2023-02-17T15:13:43.335Z,2.10
2023-02-17T15:16:10.106Z,2.23
2023-02-17T15:18:36.073Z,2.33
2023-02-17T15:21:02.470Z,2.40
2023-02-17T15:23:28.829Z,2.63
2023-02-17T15:25:55.206Z,2.43
2023-02-17T15:28:21.541Z,2.30
2023-02-17T15:30:47.931Z,2.30
2023-02-17T15:33:14.280Z,2.50
2023-02-17T15:35:40.668Z,2.50
2023-02-17T15:38:07.011Z,2.20
2023-02-17T15:40:33.395Z,2.50
2023-02-17T15:42:59.732Z,2.50
2023-02-17T15:45:26.125Z,2.50
2023-02-17T15:47:53.830Z,2.57
2023-02-17T15:50:20.168Z,2.33
2023-02-17T15:52:45.202Z,2.20
2023-02-17T15:55:11.573Z,2.50
2023-02-17T15:57:37.915Z,2.40
2023-02-17T16:00:04.319Z,2.33
2023-02-17T16:02:30.639Z,2.27
2023-02-17T16:04:57.045Z,2.10
2023-02-17T16:07:23.366Z,2.27
2023-02-17T16:09:49.801Z,2.50
2023-02-17T16:12:16.127Z,2.83
2023-02-17T16:14:42.509Z,2.73
2023-02-17T16:17:08.842Z,2.10
2023-02-17T16:19:35.231Z,2.47
2023-02-17T16:22:01.589Z,2.23
2023-02-17T16:24:27.965Z,2.50
2023-02-17T16:26:54.341Z,2.80
2023-02-17T16:29:20.726Z,2.20
2023-02-17T16:31:47.170Z,2.50
2023-02-17T16:34:13.490Z,2.70
2023-02-17T16:36:39.844Z,2.43
2023-02-17T16:39:06.258Z,2.50
2023-02-17T16:41:32.601Z,2.47
2023-02-17T16:43:59.005Z,2.10
2023-02-17T16:46:25.347Z,2.43
2023-02-17T16:48:51.730Z,2.67
2023-02-17T16:51:18.080Z,2.40
2023-02-17T16:53:44.453Z,2.50
2023-02-17T16:56:10.795Z,2.90
2023-02-17T16:58:37.177Z,2.27
2023-02-17T17:01:03.518Z,2.47
2023-02-17T17:03:29.990Z,2.40
2023-02-17T17:05:56.254Z,2.00
2023-02-17T17:08:22.669Z,2.60
2023-02-17T17:10:49.009Z,2.40
2023-02-17T17:13:15.395Z,2.40
2023-02-17T17:15:41.739Z,2.00
2023-02-17T17:18:08.120Z,2.10
2023-02-17T17:20:34.457Z,2.37
2023-02-17T17:23:00.840Z,2.33
2023-02-17T17:25:27.179Z,2.50
2023-02-17T17:27:53.571Z,2.23
2023-02-17T17:30:19.933Z,2.47
2023-02-17T17:32:46.275Z,2.20
2023-02-17T17:35:12.621Z,2.30
2023-02-17T17:37:39.658Z,2.20
2023-02-17T17:40:05.328Z,2.30
2023-02-17T17:42:31.714Z,2.43
2023-02-17T17:44:58.049Z,2.40
2023-02-17T17:47:29.838Z,2.07
2023-02-17T17:49:50.777Z,2.40
2023-02-17T17:52:17.167Z,2.87
2023-02-17T17:54:43.502Z,2.90
2023-02-17T17:57:09.911Z,3.07
2023-02-17T17:59:36.229Z,3.50
2023-02-17T18:02:02.645Z,3.20
2023-02-17T18:04:29.079Z,3.43
2023-02-17T18:06:57.077Z,3.57
2023-02-17T18:09:31.320Z,3.40
2023-02-17T18:11:48.148Z,3.40
2023-02-17T18:14:14.511Z,3.53
2023-02-17T18:16:40.900Z,3.37
2023-02-17T18:19:07.234Z,3.20
2023-02-17T18:21:33.644Z,2.90
2023-02-17T18:23:59.978Z,2.60
2023-02-17T18:26:26.351Z,3.07
2023-02-17T18:28:52.701Z,3.23
2023-02-17T18:31:19.254Z,3.27
2023-02-17T18:33:45.469Z,3.10
2023-02-17T18:36:11.855Z,2.80
2023-02-17T18:38:38.201Z,3.00
2023-02-17T18:41:04.580Z,3.30
2023-02-17T18:43:30.929Z,3.03
2023-02-17T18:45:57.315Z,3.03
2023-02-17T18:48:23.657Z,3.77
2023-02-17T18:50:50.028Z,3.57
2023-02-17T18:53:16.361Z,2.70
2023-02-17T18:55:42.769Z,3.43
2023-02-17T18:58:10.995Z,2.83
2023-02-17T19:00:35.491Z,3.17
2023-02-17T19:03:01.879Z,3.00
2023-02-17T19:05:28.237Z,3.10
2023-02-17T19:07:54.583Z,2.97
2023-02-17T19:10:20.971Z,3.03
2023-02-17T19:12:47.314Z,2.93
2023-02-17T19:15:13.706Z,3.00
2023-02-17T19:17:40.053Z,2.77
2023-02-17T19:20:06.440Z,3.00
2023-02-17T19:22:32.798Z,2.70
2023-02-17T19:24:59.179Z,2.53
2023-02-17T19:27:25.522Z,2.90
2023-02-17T19:29:51.904Z,2.97
2023-02-17T19:32:18.292Z,2.80
2023-02-17T19:34:44.649Z,2.90
2023-02-17T19:37:10.981Z,2.87
2023-02-17T19:39:37.384Z,2.60
2023-02-17T19:42:03.730Z,2.90
2023-02-17T19:44:30.097Z,3.00
2023-02-17T19:46:56.449Z,2.90
2023-02-17T19:49:22.841Z,2.60
2023-02-17T19:51:49.224Z,2.90
2023-02-17T19:54:15.599Z,2.80
2023-02-17T19:56:41.984Z,2.87
2023-02-17T19:59:08.321Z,2.70
2023-02-17T20:01:34.700Z,2.60
2023-02-17T20:04:01.057Z,2.67
2023-02-17T20:06:27.443Z,2.90
2023-02-17T20:08:53.795Z,2.90
2023-02-17T20:11:20.177Z,2.87
2023-02-17T20:13:46.894Z,2.50
2023-02-17T20:16:12.986Z,2.50
2023-02-17T20:18:39.266Z,2.60
2023-02-17T20:21:05.649Z,3.00
2023-02-17T20:23:32.039Z,2.70
2023-02-17T20:25:58.577Z,2.70
2023-02-17T20:28:25.117Z,2.47
2023-02-17T20:30:51.133Z,2.40
2023-02-17T20:33:17.469Z,2.90
2023-02-17T20:35:43.874Z,2.53
2023-02-17T20:38:10.219Z,2.50
2023-02-17T20:40:36.604Z,2.70
2023-02-17T20:43:02.954Z,2.67
2023-02-17T20:45:29.349Z,2.40
2023-02-17T20:47:55.697Z,2.47
2023-02-17T20:50:22.110Z,2.13
2023-02-17T20:52:48.698Z,2.60
2023-02-17T20:55:14.899Z,2.37
2023-02-17T20:57:41.240Z,2.60
2023-02-17T21:00:07.629Z,2.50
2023-02-17T21:02:34.013Z,2.40
2023-02-17T21:05:00.368Z,2.53
2023-02-17T21:07:26.699Z,2.33
2023-02-17T21:09:53.083Z,2.47
2023-02-17T21:12:19.420Z,2.40
2023-02-17T21:14:46.221Z,2.77
2023-02-17T21:17:12.149Z,2.20
2023-02-17T21:19:38.551Z,2.30
2023-02-17T21:22:04.902Z,2.10
2023-02-17T21:24:31.282Z,2.60
2023-02-17T21:26:57.694Z,2.13
2023-02-17T21:29:24.079Z,2.57
2023-02-17T21:31:50.505Z,2.50
2023-02-17T21:34:16.842Z,2.60
2023-02-17T21:36:43.175Z,2.20
2023-02-17T21:39:09.563Z,2.87
2023-02-17T21:41:35.946Z,2.30
2023-02-17T21:44:02.324Z,2.40
2023-02-17T21:46:28.661Z,2.27
2023-02-17T21:48:55.049Z,2.00
2023-02-17T21:51:21.393Z,2.20
2023-02-17T21:53:47.773Z,1.93
2023-02-17T21:56:14.120Z,2.10
2023-02-17T21:58:40.499Z,2.50
2023-02-17T22:01:06.896Z,2.27
2023-02-17T22:03:33.228Z,2.20
2023-02-17T22:05:59.565Z,2.10
2023-02-17T22:08:25.956Z,2.23
2023-02-17T22:10:52.286Z,2.40
2023-02-17T22:13:18.673Z,2.20
2023-02-17T22:15:45.015Z,2.40
2023-02-17T22:18:11.410Z,2.20
2023-02-17T22:20:37.761Z,2.00
2023-02-17T22:23:04.141Z,2.27
2023-02-17T22:25:30.503Z,2.10
2023-02-17T22:27:56.924Z,2.00
2023-02-17T22:30:24.325Z,2.30
2023-02-17T22:32:49.703Z,2.00
2023-02-17T22:35:16.049Z,2.27
2023-02-17T22:37:42.434Z,1.90
2023-02-17T22:40:08.769Z,1.90
2023-02-17T22:42:35.201Z,2.40
2023-02-17T22:45:01.534Z,1.83
2023-02-17T22:47:27.928Z,2.20
2023-02-17T22:49:54.269Z,2.23
2023-02-17T22:52:20.660Z,2.10
2023-02-17T22:54:47.007Z,2.33
2023-02-17T22:57:14.827Z,2.03
2023-02-17T22:59:39.734Z,2.10
2023-02-17T23:02:06.144Z,2.03
2023-02-17T23:04:32.515Z,2.33
2023-02-17T23:06:58.854Z,2.13
2023-02-17T23:09:25.202Z,1.77
2023-02-17T23:11:51.584Z,2.27
2023-02-17T23:14:17.969Z,2.37
2023-02-17T23:16:44.358Z,2.10
2023-02-17T23:19:10.691Z,2.00
2023-02-17T23:21:37.056Z,1.83
2023-02-17T23:24:03.410Z,1.90
2023-02-17T23:26:29.796Z,2.07
2023-02-17T23:28:56.165Z,1.90
2023-02-17T23:31:22.654Z,2.23
2023-02-17T23:33:48.895Z,2.10
2023-02-17T23:36:15.293Z,2.00
2023-02-17T23:38:41.664Z,1.83
2023-02-17T23:41:08.047Z,1.70
2023-02-17T23:43:34.397Z,2.23
2023-02-17T23:46:00.852Z,2.20
2023-02-17T23:48:27.128Z,2.00
2023-02-17T23:50:53.503Z,1.90
2023-02-17T23:53:19.849Z,1.80
2023-02-17T23:55:46.235Z,1.90
2023-02-17T23:58:12.569Z,2.03
